sensor_id;sensor_type;location;lat;lon;timestamp;temperature;humidity
18974;DHT22;9621;48.690;9.466;2023-04-01T00:00:59;7.60;99.90
18974;DHT22;9621;48.690;9.466;2023-04-01T00:03:28;7.60;99.90
18974;DHT22;9621;48.690;9.466;2023-04-01T00:05:57;7.60;99.90
18974;DHT22;9621;48.690;9.466;2023-04-01T00:08:25;7.50;99.90
18974;DHT22;9621;48.690;9.466;2023-04-01T00:10:53;7.50;99.90
18974;DHT22;9621;48.690;9.466;2023-04-01T00:13:20;7.50;99.90
18974;DHT22;9621;48.690;9.466;2023-04-01T00:15:47;7.50;99.90
18974;DHT22;9621;48.690;9.466;2023-04-01T00:18:15;7.50;99.90
18974;DHT22;9621;48.690;9.466;2023-04-01T00:20:44;7.50;99.90
18974;DHT22;9621;48.690;9.466;2023-04-01T00:23:12;7.50;99.90
18974;DHT22;9621;48.690;9.466;2023-04-01T00:25:40;7.60;99.90
18974;DHT22;9621;48.690;9.466;2023-04-01T00:28:07;7.60;99.90
18974;DHT22;9621;48.690;9.466;2023-04-01T00:30:35;7.60;99.90
18974;DHT22;9621;48.690;9.466;2023-04-01T00:33:02;7.60;99.90
18974;DHT22;9621;48.690;9.466;2023-04-01T00:35:30;7.60;99.90
18974;DHT22;9621;48.690;9.466;2023-04-01T00:37:57;7.60;99.90
18974;DHT22;9621;48.690;9.466;2023-04-01T00:40:27;7.60;99.90
18974;DHT22;9621;48.690;9.466;2023-04-01T00:42:56;7.60;99.90
18974;DHT22;9621;48.690;9.466;2023-04-01T00:45:29;7.60;99.90
18974;DHT22;9621;48.690;9.466;2023-04-01T00:47:59;7.60;99.90
18974;DHT22;9621;48.690;9.466;2023-04-01T00:50:29;7.60;99.90
18974;DHT22;9621;48.690;9.466;2023-04-01T00:52:57;7.60;99.90
18974;DHT22;9621;48.690;9.466;2023-04-01T00:55:27;7.60;99.90
18974;DHT22;9621;48.690;9.466;2023-04-01T00:57:57;7.70;99.90
18974;DHT22;9621;48.690;9.466;2023-04-01T01:00:26;7.60;99.90
18974;DHT22;9621;48.690;9.466;2023-04-01T01:02:53;7.70;99.90
18974;DHT22;9621;48.690;9.466;2023-04-01T01:05:29;7.70;99.90
18974;DHT22;9621;48.690;9.466;2023-04-01T01:08:06;7.70;99.90
18974;DHT22;9621;48.690;9.466;2023-04-01T01:10:36;7.70;99.90
18974;DHT22;9621;48.690;9.466;2023-04-01T01:13:11;7.90;99.90
18974;DHT22;9621;48.690;9.466;2023-04-01T01:15:44;7.80;99.90
18974;DHT22;9621;48.690;9.466;2023-04-01T01:18:18;7.80;99.90
18974;DHT22;9621;48.690;9.466;2023-04-01T01:21:12;7.80;99.90
18974;DHT22;9621;48.690;9.466;2023-04-01T01:24:02;7.80;99.90
18974;DHT22;9621;48.690;9.466;2023-04-01T01:26:50;7.90;99.90
18974;DHT22;9621;48.690;9.466;2023-04-01T01:29:39;7.80;99.90
18974;DHT22;9621;48.690;9.466;2023-04-01T01:32:17;7.70;99.90
18974;DHT22;9621;48.690;9.466;2023-04-01T01:34:51;7.70;99.90
18974;DHT22;9621;48.690;9.466;2023-04-01T01:37:24;7.60;99.90
18974;DHT22;9621;48.690;9.466;2023-04-01T01:39:56;7.60;99.90
18974;DHT22;9621;48.690;9.466;2023-04-01T01:42:25;7.60;99.90
18974;DHT22;9621;48.690;9.466;2023-04-01T01:44:54;7.50;99.90
18974;DHT22;9621;48.690;9.466;2023-04-01T01:47:22;7.60;99.90
18974;DHT22;9621;48.690;9.466;2023-04-01T01:49:51;7.50;99.90
18974;DHT22;9621;48.690;9.466;2023-04-01T01:52:18;7.50;99.90
18974;DHT22;9621;48.690;9.466;2023-04-01T01:54:50;7.40;99.90
18974;DHT22;9621;48.690;9.466;2023-04-01T01:57:21;7.50;99.90
18974;DHT22;9621;48.690;9.466;2023-04-01T01:59:51;7.30;99.90
18974;DHT22;9621;48.690;9.466;2023-04-01T02:02:19;7.30;99.90
18974;DHT22;9621;48.690;9.466;2023-04-01T02:04:47;7.30;99.90
18974;DHT22;9621;48.690;9.466;2023-04-01T02:07:20;7.30;99.90
18974;DHT22;9621;48.690;9.466;2023-04-01T02:09:49;7.20;99.90
18974;DHT22;9621;48.690;9.466;2023-04-01T02:12:19;7.20;99.90
18974;DHT22;9621;48.690;9.466;2023-04-01T02:14:52;7.20;99.90
18974;DHT22;9621;48.690;9.466;2023-04-01T02:17:20;7.20;99.90
18974;DHT22;9621;48.690;9.466;2023-04-01T02:19:50;7.10;99.90
18974;DHT22;9621;48.690;9.466;2023-04-01T02:22:21;7.10;99.90
18974;DHT22;9621;48.690;9.466;2023-04-01T02:24:53;7.00;99.90
18974;DHT22;9621;48.690;9.466;2023-04-01T02:27:21;7.00;99.90
18974;DHT22;9621;48.690;9.466;2023-04-01T02:29:48;7.10;99.90
18974;DHT22;9621;48.690;9.466;2023-04-01T02:32:16;7.00;99.90
18974;DHT22;9621;48.690;9.466;2023-04-01T02:34:44;7.00;99.90
18974;DHT22;9621;48.690;9.466;2023-04-01T02:37:12;7.10;99.90
18974;DHT22;9621;48.690;9.466;2023-04-01T02:39:39;7.00;99.90
18974;DHT22;9621;48.690;9.466;2023-04-01T02:42:10;7.00;99.90
18974;DHT22;9621;48.690;9.466;2023-04-01T02:44:37;7.00;99.90
18974;DHT22;9621;48.690;9.466;2023-04-01T02:47:04;7.00;99.90
18974;DHT22;9621;48.690;9.466;2023-04-01T02:49:31;7.10;99.90
18974;DHT22;9621;48.690;9.466;2023-04-01T02:51:57;7.00;99.90
18974;DHT22;9621;48.690;9.466;2023-04-01T02:54:24;7.00;99.90
18974;DHT22;9621;48.690;9.466;2023-04-01T02:56:52;6.90;99.90
18974;DHT22;9621;48.690;9.466;2023-04-01T02:59:20;6.90;99.90
18974;DHT22;9621;48.690;9.466;2023-04-01T03:01:47;6.90;99.90
18974;DHT22;9621;48.690;9.466;2023-04-01T03:04:13;6.90;99.90
18974;DHT22;9621;48.690;9.466;2023-04-01T03:06:40;6.90;99.90
18974;DHT22;9621;48.690;9.466;2023-04-01T03:09:07;6.90;99.90
18974;DHT22;9621;48.690;9.466;2023-04-01T03:11:34;6.80;99.90
18974;DHT22;9621;48.690;9.466;2023-04-01T03:14:02;6.70;99.90
18974;DHT22;9621;48.690;9.466;2023-04-01T03:16:30;6.70;99.90
18974;DHT22;9621;48.690;9.466;2023-04-01T03:18:57;6.60;99.90
18974;DHT22;9621;48.690;9.466;2023-04-01T03:21:25;6.50;99.90
18974;DHT22;9621;48.690;9.466;2023-04-01T03:23:53;6.50;99.90
18974;DHT22;9621;48.690;9.466;2023-04-01T03:26:20;6.40;99.90
18974;DHT22;9621;48.690;9.466;2023-04-01T03:28:47;6.40;99.90
18974;DHT22;9621;48.690;9.466;2023-04-01T03:31:14;6.30;99.90
18974;DHT22;9621;48.690;9.466;2023-04-01T03:33:42;6.30;99.90
18974;DHT22;9621;48.690;9.466;2023-04-01T03:36:09;6.20;99.90
18974;DHT22;9621;48.690;9.466;2023-04-01T03:38:38;6.20;99.90
18974;DHT22;9621;48.690;9.466;2023-04-01T03:41:05;6.20;99.90
18974;DHT22;9621;48.690;9.466;2023-04-01T03:43:32;6.20;99.90
18974;DHT22;9621;48.690;9.466;2023-04-01T03:46:00;6.20;99.90
18974;DHT22;9621;48.690;9.466;2023-04-01T03:48:26;6.20;99.90
18974;DHT22;9621;48.690;9.466;2023-04-01T03:50:55;6.20;99.90
18974;DHT22;9621;48.690;9.466;2023-04-01T03:53:22;6.20;99.90
18974;DHT22;9621;48.690;9.466;2023-04-01T03:55:49;6.30;99.90
18974;DHT22;9621;48.690;9.466;2023-04-01T03:58:17;6.20;99.90
18974;DHT22;9621;48.690;9.466;2023-04-01T04:00:44;6.30;99.90
18974;DHT22;9621;48.690;9.466;2023-04-01T04:03:11;6.20;99.90
18974;DHT22;9621;48.690;9.466;2023-04-01T04:05:46;6.30;99.90
18974;DHT22;9621;48.690;9.466;2023-04-01T04:08:14;6.30;99.90
18974;DHT22;9621;48.690;9.466;2023-04-01T04:10:41;6.30;99.90
18974;DHT22;9621;48.690;9.466;2023-04-01T04:13:08;6.30;99.90
18974;DHT22;9621;48.690;9.466;2023-04-01T04:15:35;6.20;99.90
18974;DHT22;9621;48.690;9.466;2023-04-01T04:18:02;6.20;99.90
18974;DHT22;9621;48.690;9.466;2023-04-01T04:20:29;6.10;99.90
18974;DHT22;9621;48.690;9.466;2023-04-01T04:22:56;6.10;99.90
18974;DHT22;9621;48.690;9.466;2023-04-01T04:25:24;6.10;99.90
18974;DHT22;9621;48.690;9.466;2023-04-01T04:27:51;6.00;99.90
18974;DHT22;9621;48.690;9.466;2023-04-01T04:30:18;5.90;99.90
18974;DHT22;9621;48.690;9.466;2023-04-01T04:32:45;5.90;99.90
18974;DHT22;9621;48.690;9.466;2023-04-01T04:35:12;5.80;99.90
18974;DHT22;9621;48.690;9.466;2023-04-01T04:37:38;5.80;99.90
18974;DHT22;9621;48.690;9.466;2023-04-01T04:40:07;5.70;99.90
18974;DHT22;9621;48.690;9.466;2023-04-01T04:42:35;5.70;99.90
18974;DHT22;9621;48.690;9.466;2023-04-01T04:45:03;5.60;99.90
18974;DHT22;9621;48.690;9.466;2023-04-01T04:47:30;5.60;99.90
18974;DHT22;9621;48.690;9.466;2023-04-01T04:49:57;5.50;99.90
18974;DHT22;9621;48.690;9.466;2023-04-01T04:52:24;5.50;99.90
18974;DHT22;9621;48.690;9.466;2023-04-01T04:54:51;5.50;99.90
18974;DHT22;9621;48.690;9.466;2023-04-01T04:57:18;5.50;99.90
18974;DHT22;9621;48.690;9.466;2023-04-01T04:59:46;5.40;99.90
18974;DHT22;9621;48.690;9.466;2023-04-01T05:02:13;5.40;99.90
18974;DHT22;9621;48.690;9.466;2023-04-01T05:04:40;5.40;99.90
18974;DHT22;9621;48.690;9.466;2023-04-01T05:07:07;5.40;99.90
18974;DHT22;9621;48.690;9.466;2023-04-01T05:09:34;5.40;99.90
18974;DHT22;9621;48.690;9.466;2023-04-01T05:12:01;5.50;99.90
18974;DHT22;9621;48.690;9.466;2023-04-01T05:14:27;5.50;99.90
18974;DHT22;9621;48.690;9.466;2023-04-01T05:16:56;5.60;99.90
18974;DHT22;9621;48.690;9.466;2023-04-01T05:19:23;5.60;99.90
18974;DHT22;9621;48.690;9.466;2023-04-01T05:21:50;5.70;99.90
18974;DHT22;9621;48.690;9.466;2023-04-01T05:24:18;5.80;99.90
18974;DHT22;9621;48.690;9.466;2023-04-01T05:26:45;5.90;99.90
18974;DHT22;9621;48.690;9.466;2023-04-01T05:29:12;6.00;99.90
18974;DHT22;9621;48.690;9.466;2023-04-01T05:31:38;6.10;99.90
18974;DHT22;9621;48.690;9.466;2023-04-01T05:34:07;6.20;99.90
18974;DHT22;9621;48.690;9.466;2023-04-01T05:36:34;6.30;99.90
18974;DHT22;9621;48.690;9.466;2023-04-01T05:39:01;6.30;99.90
18974;DHT22;9621;48.690;9.466;2023-04-01T05:41:28;6.50;99.90
18974;DHT22;9621;48.690;9.466;2023-04-01T05:43:55;6.50;99.90
18974;DHT22;9621;48.690;9.466;2023-04-01T05:46:22;6.60;99.90
18974;DHT22;9621;48.690;9.466;2023-04-01T05:48:49;6.80;99.90
18974;DHT22;9621;48.690;9.466;2023-04-01T05:51:17;6.80;99.90
18974;DHT22;9621;48.690;9.466;2023-04-01T05:53:44;6.90;99.90
18974;DHT22;9621;48.690;9.466;2023-04-01T05:56:11;6.90;99.90
18974;DHT22;9621;48.690;9.466;2023-04-01T05:58:38;7.00;99.90
18974;DHT22;9621;48.690;9.466;2023-04-01T06:01:08;7.10;99.90
18974;DHT22;9621;48.690;9.466;2023-04-01T06:03:36;7.10;99.90
18974;DHT22;9621;48.690;9.466;2023-04-01T06:06:04;7.20;99.90
18974;DHT22;9621;48.690;9.466;2023-04-01T06:08:32;7.20;99.90
18974;DHT22;9621;48.690;9.466;2023-04-01T06:11:08;7.40;99.90
18974;DHT22;9621;48.690;9.466;2023-04-01T06:16:56;7.60;99.90
18974;DHT22;9621;48.690;9.466;2023-04-01T06:19:32;7.60;99.90
18974;DHT22;9621;48.690;9.466;2023-04-01T06:22:38;7.80;99.90
18974;DHT22;9621;48.690;9.466;2023-04-01T06:25:21;7.90;99.90
18974;DHT22;9621;48.690;9.466;2023-04-01T06:28:02;8.10;99.90
18974;DHT22;9621;48.690;9.466;2023-04-01T06:30:38;8.20;99.90
18974;DHT22;9621;48.690;9.466;2023-04-01T06:33:25;8.40;99.90
18974;DHT22;9621;48.690;9.466;2023-04-01T06:36:15;8.50;99.90
18974;DHT22;9621;48.690;9.466;2023-04-01T06:38:57;8.60;99.90
18974;DHT22;9621;48.690;9.466;2023-04-01T06:41:45;8.80;99.90
18974;DHT22;9621;48.690;9.466;2023-04-01T06:44:23;8.90;99.90
18974;DHT22;9621;48.690;9.466;2023-04-01T06:46:58;9.00;99.90
18974;DHT22;9621;48.690;9.466;2023-04-01T06:49:36;9.00;99.90
18974;DHT22;9621;48.690;9.466;2023-04-01T06:52:16;9.10;99.90
18974;DHT22;9621;48.690;9.466;2023-04-01T06:54:49;9.10;99.90
18974;DHT22;9621;48.690;9.466;2023-04-01T06:57:23;9.20;99.90
18974;DHT22;9621;48.690;9.466;2023-04-01T06:59:54;9.20;99.90
18974;DHT22;9621;48.690;9.466;2023-04-01T07:02:29;9.30;99.90
18974;DHT22;9621;48.690;9.466;2023-04-01T07:04:59;9.30;99.90
18974;DHT22;9621;48.690;9.466;2023-04-01T07:07:33;9.40;99.90
18974;DHT22;9621;48.690;9.466;2023-04-01T07:10:05;9.40;99.90
18974;DHT22;9621;48.690;9.466;2023-04-01T07:12:44;9.40;99.90
18974;DHT22;9621;48.690;9.466;2023-04-01T07:15:18;9.40;99.90
18974;DHT22;9621;48.690;9.466;2023-04-01T07:17:48;9.30;99.90
18974;DHT22;9621;48.690;9.466;2023-04-01T07:20:20;9.30;99.90
18974;DHT22;9621;48.690;9.466;2023-04-01T07:22:51;9.20;99.90
18974;DHT22;9621;48.690;9.466;2023-04-01T07:25:21;9.20;99.90
18974;DHT22;9621;48.690;9.466;2023-04-01T07:27:52;9.30;99.90
18974;DHT22;9621;48.690;9.466;2023-04-01T07:30:21;9.20;99.90
18974;DHT22;9621;48.690;9.466;2023-04-01T07:32:52;9.20;99.90
18974;DHT22;9621;48.690;9.466;2023-04-01T07:35:25;9.10;99.90
18974;DHT22;9621;48.690;9.466;2023-04-01T07:38:03;9.20;99.90
18974;DHT22;9621;48.690;9.466;2023-04-01T07:40:38;9.20;99.90
18974;DHT22;9621;48.690;9.466;2023-04-01T07:46:17;9.20;99.90
18974;DHT22;9621;48.690;9.466;2023-04-01T07:48:52;9.20;99.90
18974;DHT22;9621;48.690;9.466;2023-04-01T07:51:27;9.20;99.90
18974;DHT22;9621;48.690;9.466;2023-04-01T07:54:01;9.20;99.90
18974;DHT22;9621;48.690;9.466;2023-04-01T07:56:37;9.20;99.90
18974;DHT22;9621;48.690;9.466;2023-04-01T07:59:10;9.20;99.90
18974;DHT22;9621;48.690;9.466;2023-04-01T08:01:44;9.20;99.90
18974;DHT22;9621;48.690;9.466;2023-04-01T08:04:33;9.20;99.90
18974;DHT22;9621;48.690;9.466;2023-04-01T08:07:06;9.20;99.90
18974;DHT22;9621;48.690;9.466;2023-04-01T08:09:40;9.20;99.90
18974;DHT22;9621;48.690;9.466;2023-04-01T08:12:15;9.30;99.90
18974;DHT22;9621;48.690;9.466;2023-04-01T08:14:54;9.30;99.90
18974;DHT22;9621;48.690;9.466;2023-04-01T08:17:30;9.30;99.90
18974;DHT22;9621;48.690;9.466;2023-04-01T08:20:18;9.40;99.90
18974;DHT22;9621;48.690;9.466;2023-04-01T08:22:51;9.40;99.90
18974;DHT22;9621;48.690;9.466;2023-04-01T08:25:22;9.50;99.90
18974;DHT22;9621;48.690;9.466;2023-04-01T08:27:53;9.40;99.90
18974;DHT22;9621;48.690;9.466;2023-04-01T08:30:24;9.50;99.90
18974;DHT22;9621;48.690;9.466;2023-04-01T08:32:58;9.40;99.90
18974;DHT22;9621;48.690;9.466;2023-04-01T08:35:28;9.50;99.90
18974;DHT22;9621;48.690;9.466;2023-04-01T08:38:00;9.50;99.90
18974;DHT22;9621;48.690;9.466;2023-04-01T08:40:39;9.40;99.90
18974;DHT22;9621;48.690;9.466;2023-04-01T08:43:16;9.40;99.90
18974;DHT22;9621;48.690;9.466;2023-04-01T08:46:06;9.50;99.90
18974;DHT22;9621;48.690;9.466;2023-04-01T08:48:51;9.50;99.90
18974;DHT22;9621;48.690;9.466;2023-04-01T08:51:48;9.50;99.90
18974;DHT22;9621;48.690;9.466;2023-04-01T08:57:17;9.50;99.90
18974;DHT22;9621;48.690;9.466;2023-04-01T08:59:57;9.50;99.90
18974;DHT22;9621;48.690;9.466;2023-04-01T09:02:51;9.50;99.90
18974;DHT22;9621;48.690;9.466;2023-04-01T09:05:35;9.60;99.90
18974;DHT22;9621;48.690;9.466;2023-04-01T09:08:12;9.70;99.90
18974;DHT22;9621;48.690;9.466;2023-04-01T09:10:56;9.70;99.90
18974;DHT22;9621;48.690;9.466;2023-04-01T09:13:34;9.60;99.90
18974;DHT22;9621;48.690;9.466;2023-04-01T09:16:16;9.50;99.90
18974;DHT22;9621;48.690;9.466;2023-04-01T09:18:54;9.40;99.90
18974;DHT22;9621;48.690;9.466;2023-04-01T09:21:34;9.30;99.90
18974;DHT22;9621;48.690;9.466;2023-04-01T09:24:22;9.10;99.90
18974;DHT22;9621;48.690;9.466;2023-04-01T09:27:04;9.00;99.90
18974;DHT22;9621;48.690;9.466;2023-04-01T09:29:58;8.80;99.90
18974;DHT22;9621;48.690;9.466;2023-04-01T09:32:42;8.70;99.90
18974;DHT22;9621;48.690;9.466;2023-04-01T09:35:21;8.60;99.90
18974;DHT22;9621;48.690;9.466;2023-04-01T09:38:00;8.50;99.90
18974;DHT22;9621;48.690;9.466;2023-04-01T09:40:40;8.60;99.90
18974;DHT22;9621;48.690;9.466;2023-04-01T09:43:25;8.50;99.90
18974;DHT22;9621;48.690;9.466;2023-04-01T09:46:04;8.50;99.90
18974;DHT22;9621;48.690;9.466;2023-04-01T09:48:46;8.50;99.90
18974;DHT22;9621;48.690;9.466;2023-04-01T09:51:29;8.60;99.90
18974;DHT22;9621;48.690;9.466;2023-04-01T09:54:13;8.70;99.90
18974;DHT22;9621;48.690;9.466;2023-04-01T10:00:04;8.90;99.90
18974;DHT22;9621;48.690;9.466;2023-04-01T10:09:03;9.00;99.90
18974;DHT22;9621;48.690;9.466;2023-04-01T10:12:15;9.00;99.90
18974;DHT22;9621;48.690;9.466;2023-04-01T10:15:16;9.00;99.90
18974;DHT22;9621;48.690;9.466;2023-04-01T10:24:07;8.80;99.90
18974;DHT22;9621;48.690;9.466;2023-04-01T10:27:02;8.80;99.90
18974;DHT22;9621;48.690;9.466;2023-04-01T10:39:08;8.70;99.90
18974;DHT22;9621;48.690;9.466;2023-04-01T10:42:08;8.70;99.90
18974;DHT22;9621;48.690;9.466;2023-04-01T10:45:10;8.70;99.90
18974;DHT22;9621;48.690;9.466;2023-04-01T10:51:04;8.60;99.90
18974;DHT22;9621;48.690;9.466;2023-04-01T10:53:41;8.70;99.90
18974;DHT22;9621;48.690;9.466;2023-04-01T10:56:36;8.60;99.90
18974;DHT22;9621;48.690;9.466;2023-04-01T10:59:31;8.70;99.90
18974;DHT22;9621;48.690;9.466;2023-04-01T11:15:18;9.20;99.90
18974;DHT22;9621;48.690;9.466;2023-04-01T11:21:38;9.40;99.90
18974;DHT22;9621;48.690;9.466;2023-04-01T11:27:14;9.60;99.90
18974;DHT22;9621;48.690;9.466;2023-04-01T11:30:02;9.70;99.90
18974;DHT22;9621;48.690;9.466;2023-04-01T11:32:43;9.70;99.90
18974;DHT22;9621;48.690;9.466;2023-04-01T11:38:26;9.80;99.90
18974;DHT22;9621;48.690;9.466;2023-04-01T11:41:07;9.80;99.90
18974;DHT22;9621;48.690;9.466;2023-04-01T11:43:41;9.80;99.90
18974;DHT22;9621;48.690;9.466;2023-04-01T11:46:14;9.90;99.90
18974;DHT22;9621;48.690;9.466;2023-04-01T11:48:58;9.90;99.90
18974;DHT22;9621;48.690;9.466;2023-04-01T11:54:37;9.90;99.90
18974;DHT22;9621;48.690;9.466;2023-04-01T11:57:19;10.00;99.90
18974;DHT22;9621;48.690;9.466;2023-04-01T12:00:17;10.00;99.90
18974;DHT22;9621;48.690;9.466;2023-04-01T12:02:55;10.10;99.90
18974;DHT22;9621;48.690;9.466;2023-04-01T12:05:39;10.10;99.90
18974;DHT22;9621;48.690;9.466;2023-04-01T12:08:27;10.20;99.90
18974;DHT22;9621;48.690;9.466;2023-04-01T12:11:03;10.20;99.90
18974;DHT22;9621;48.690;9.466;2023-04-01T12:13:39;10.20;99.90
18974;DHT22;9621;48.690;9.466;2023-04-01T12:16:36;10.30;99.90
18974;DHT22;9621;48.690;9.466;2023-04-01T12:19:14;10.30;99.90
18974;DHT22;9621;48.690;9.466;2023-04-01T12:21:50;10.30;99.90
18974;DHT22;9621;48.690;9.466;2023-04-01T12:27:29;10.30;99.90
18974;DHT22;9621;48.690;9.466;2023-04-01T12:30:24;10.30;99.90
18974;DHT22;9621;48.690;9.466;2023-04-01T12:33:01;10.30;99.90
18974;DHT22;9621;48.690;9.466;2023-04-01T12:35:37;10.30;99.90
18974;DHT22;9621;48.690;9.466;2023-04-01T12:38:20;10.20;99.90
18974;DHT22;9621;48.690;9.466;2023-04-01T12:41:09;10.20;99.90
18974;DHT22;9621;48.690;9.466;2023-04-01T12:46:59;10.10;99.90
18974;DHT22;9621;48.690;9.466;2023-04-01T12:49:51;10.10;99.90
18974;DHT22;9621;48.690;9.466;2023-04-01T12:52:26;10.10;99.90
18974;DHT22;9621;48.690;9.466;2023-04-01T12:55:19;10.10;99.90
18974;DHT22;9621;48.690;9.466;2023-04-01T13:01:02;10.10;99.90
18974;DHT22;9621;48.690;9.466;2023-04-01T13:03:44;10.10;99.90
18974;DHT22;9621;48.690;9.466;2023-04-01T13:06:29;10.20;99.90
18974;DHT22;9621;48.690;9.466;2023-04-01T13:09:08;10.20;99.90
18974;DHT22;9621;48.690;9.466;2023-04-01T13:11:52;10.30;99.90
18974;DHT22;9621;48.690;9.466;2023-04-01T13:14:50;10.30;99.90
18974;DHT22;9621;48.690;9.466;2023-04-01T13:17:29;10.40;99.90
18974;DHT22;9621;48.690;9.466;2023-04-01T13:20:02;10.50;99.90
18974;DHT22;9621;48.690;9.466;2023-04-01T13:22:46;10.50;99.90
18974;DHT22;9621;48.690;9.466;2023-04-01T13:25:22;10.60;99.90
18974;DHT22;9621;48.690;9.466;2023-04-01T13:27:56;10.60;99.90
18974;DHT22;9621;48.690;9.466;2023-04-01T13:30:34;10.60;99.90
18974;DHT22;9621;48.690;9.466;2023-04-01T13:33:13;10.60;99.90
18974;DHT22;9621;48.690;9.466;2023-04-01T13:35:45;10.50;99.90
18974;DHT22;9621;48.690;9.466;2023-04-01T13:38:38;10.40;99.90
18974;DHT22;9621;48.690;9.466;2023-04-01T13:41:15;10.40;99.90
18974;DHT22;9621;48.690;9.466;2023-04-01T13:43:50;10.40;99.90
18974;DHT22;9621;48.690;9.466;2023-04-01T13:46:41;10.40;99.90
18974;DHT22;9621;48.690;9.466;2023-04-01T13:52:27;10.40;99.90
18974;DHT22;9621;48.690;9.466;2023-04-01T13:58:28;10.40;99.90
18974;DHT22;9621;48.690;9.466;2023-04-01T14:01:05;10.40;99.90
18974;DHT22;9621;48.690;9.466;2023-04-01T14:03:43;10.50;99.90
18974;DHT22;9621;48.690;9.466;2023-04-01T14:06:27;10.50;99.90
18974;DHT22;9621;48.690;9.466;2023-04-01T14:09:07;10.60;99.90
18974;DHT22;9621;48.690;9.466;2023-04-01T14:11:44;10.70;99.90
18974;DHT22;9621;48.690;9.466;2023-04-01T14:14:21;10.80;99.90
18974;DHT22;9621;48.690;9.466;2023-04-01T14:20:22;11.00;99.90
18974;DHT22;9621;48.690;9.466;2023-04-01T14:23:03;11.10;99.90
18974;DHT22;9621;48.690;9.466;2023-04-01T14:25:55;11.20;99.90
18974;DHT22;9621;48.690;9.466;2023-04-01T14:28:34;11.20;99.90
18974;DHT22;9621;48.690;9.466;2023-04-01T14:31:23;11.50;99.90
18974;DHT22;9621;48.690;9.466;2023-04-01T14:34:00;11.30;99.90
18974;DHT22;9621;48.690;9.466;2023-04-01T14:36:55;11.30;99.90
18974;DHT22;9621;48.690;9.466;2023-04-01T14:42:23;11.40;99.90
18974;DHT22;9621;48.690;9.466;2023-04-01T14:45:06;11.50;99.90
18974;DHT22;9621;48.690;9.466;2023-04-01T14:47:43;11.40;99.90
18974;DHT22;9621;48.690;9.466;2023-04-01T14:50:14;11.30;99.90
18974;DHT22;9621;48.690;9.466;2023-04-01T14:52:44;11.30;99.90
18974;DHT22;9621;48.690;9.466;2023-04-01T14:55:29;11.30;99.90
18974;DHT22;9621;48.690;9.466;2023-04-01T14:58:09;11.20;99.90
18974;DHT22;9621;48.690;9.466;2023-04-01T15:01:00;11.20;99.90
18974;DHT22;9621;48.690;9.466;2023-04-01T15:03:40;11.10;99.90
18974;DHT22;9621;48.690;9.466;2023-04-01T15:09:09;11.00;99.90
18974;DHT22;9621;48.690;9.466;2023-04-01T15:11:52;10.90;99.90
18974;DHT22;9621;48.690;9.466;2023-04-01T15:14:42;10.80;99.90
18974;DHT22;9621;48.690;9.466;2023-04-01T15:17:32;10.70;99.90
18974;DHT22;9621;48.690;9.466;2023-04-01T15:20:18;10.60;99.90
18974;DHT22;9621;48.690;9.466;2023-04-01T15:23:01;10.60;99.90
18974;DHT22;9621;48.690;9.466;2023-04-01T15:25:43;10.60;99.90
18974;DHT22;9621;48.690;9.466;2023-04-01T15:28:21;10.60;99.90
18974;DHT22;9621;48.690;9.466;2023-04-01T15:30:54;10.50;99.90
18974;DHT22;9621;48.690;9.466;2023-04-01T15:33:48;10.50;99.90
18974;DHT22;9621;48.690;9.466;2023-04-01T15:36:24;10.40;99.90
18974;DHT22;9621;48.690;9.466;2023-04-01T15:39:03;10.40;99.90
18974;DHT22;9621;48.690;9.466;2023-04-01T15:41:39;10.30;99.90
18974;DHT22;9621;48.690;9.466;2023-04-01T15:44:36;10.30;99.90
18974;DHT22;9621;48.690;9.466;2023-04-01T15:47:07;10.10;99.90
18974;DHT22;9621;48.690;9.466;2023-04-01T15:49:56;10.00;99.90
18974;DHT22;9621;48.690;9.466;2023-04-01T15:52:37;10.00;99.90
18974;DHT22;9621;48.690;9.466;2023-04-01T15:55:20;9.90;99.90
18974;DHT22;9621;48.690;9.466;2023-04-01T15:58:04;9.80;99.90
18974;DHT22;9621;48.690;9.466;2023-04-01T16:00:46;9.80;99.90
18974;DHT22;9621;48.690;9.466;2023-04-01T16:03:34;9.80;99.90
18974;DHT22;9621;48.690;9.466;2023-04-01T16:09:26;9.70;99.90
18974;DHT22;9621;48.690;9.466;2023-04-01T16:11:59;9.70;99.90
18974;DHT22;9621;48.690;9.466;2023-04-01T16:14:39;9.60;99.90
18974;DHT22;9621;48.690;9.466;2023-04-01T16:20:16;9.60;99.90
18974;DHT22;9621;48.690;9.466;2023-04-01T16:22:50;9.60;99.90
18974;DHT22;9621;48.690;9.466;2023-04-01T16:25:31;9.50;99.90
18974;DHT22;9621;48.690;9.466;2023-04-01T16:28:13;9.50;99.90
18974;DHT22;9621;48.690;9.466;2023-04-01T16:30:46;9.50;99.90
18974;DHT22;9621;48.690;9.466;2023-04-01T16:33:19;9.50;99.90
18974;DHT22;9621;48.690;9.466;2023-04-01T16:35:54;9.50;99.90
18974;DHT22;9621;48.690;9.466;2023-04-01T16:38:25;9.50;99.90
18974;DHT22;9621;48.690;9.466;2023-04-01T16:41:07;9.40;99.90
18974;DHT22;9621;48.690;9.466;2023-04-01T16:43:41;9.40;99.90
18974;DHT22;9621;48.690;9.466;2023-04-01T16:46:26;9.40;99.90
18974;DHT22;9621;48.690;9.466;2023-04-01T16:49:04;9.40;99.90
18974;DHT22;9621;48.690;9.466;2023-04-01T16:51:44;9.40;99.90
18974;DHT22;9621;48.690;9.466;2023-04-01T16:54:17;9.40;99.90
18974;DHT22;9621;48.690;9.466;2023-04-01T16:56:49;9.40;99.90
18974;DHT22;9621;48.690;9.466;2023-04-01T16:59:21;9.40;99.90
18974;DHT22;9621;48.690;9.466;2023-04-01T17:01:53;9.40;99.90
18974;DHT22;9621;48.690;9.466;2023-04-01T17:04:29;9.40;99.90
18974;DHT22;9621;48.690;9.466;2023-04-01T17:07:05;9.30;99.90
18974;DHT22;9621;48.690;9.466;2023-04-01T17:09:48;9.30;99.90
18974;DHT22;9621;48.690;9.466;2023-04-01T17:12:26;9.30;99.90
18974;DHT22;9621;48.690;9.466;2023-04-01T17:15:01;9.30;99.90
18974;DHT22;9621;48.690;9.466;2023-04-01T17:17:42;9.30;99.90
18974;DHT22;9621;48.690;9.466;2023-04-01T17:20:18;9.40;99.90
18974;DHT22;9621;48.690;9.466;2023-04-01T17:22:55;9.30;99.90
18974;DHT22;9621;48.690;9.466;2023-04-01T17:25:43;9.30;99.90
18974;DHT22;9621;48.690;9.466;2023-04-01T17:28:23;9.30;99.90
18974;DHT22;9621;48.690;9.466;2023-04-01T17:30:58;9.30;99.90
18974;DHT22;9621;48.690;9.466;2023-04-01T17:36:52;9.30;99.90
18974;DHT22;9621;48.690;9.466;2023-04-01T17:39:36;9.30;99.90
18974;DHT22;9621;48.690;9.466;2023-04-01T17:42:08;9.20;99.90
18974;DHT22;9621;48.690;9.466;2023-04-01T17:44:49;9.20;99.90
18974;DHT22;9621;48.690;9.466;2023-04-01T17:50:21;9.20;99.90
18974;DHT22;9621;48.690;9.466;2023-04-01T17:52:58;9.20;99.90
18974;DHT22;9621;48.690;9.466;2023-04-01T17:55:55;9.10;99.90
18974;DHT22;9621;48.690;9.466;2023-04-01T17:58:29;9.10;99.90
18974;DHT22;9621;48.690;9.466;2023-04-01T18:01:18;9.10;99.90
18974;DHT22;9621;48.690;9.466;2023-04-01T18:07:00;9.10;99.90
18974;DHT22;9621;48.690;9.466;2023-04-01T18:09:36;9.10;99.90
18974;DHT22;9621;48.690;9.466;2023-04-01T18:12:12;9.10;99.90
18974;DHT22;9621;48.690;9.466;2023-04-01T18:17:46;9.10;99.90
18974;DHT22;9621;48.690;9.466;2023-04-01T18:20:31;9.10;99.90
18974;DHT22;9621;48.690;9.466;2023-04-01T18:23:03;9.10;99.90
18974;DHT22;9621;48.690;9.466;2023-04-01T18:25:34;9.10;99.90
18974;DHT22;9621;48.690;9.466;2023-04-01T18:28:18;9.00;99.90
18974;DHT22;9621;48.690;9.466;2023-04-01T18:30:52;9.00;99.90
18974;DHT22;9621;48.690;9.466;2023-04-01T18:33:28;9.10;99.90
18974;DHT22;9621;48.690;9.466;2023-04-01T18:36:02;9.10;99.90
18974;DHT22;9621;48.690;9.466;2023-04-01T18:38:33;9.00;99.90
18974;DHT22;9621;48.690;9.466;2023-04-01T18:41:13;9.00;99.90